Time;durP1;ratioP1;P1;durP2;ratioP2;P2;SDS_P1;SDS_P2;PMS_P1;PMS_P2;Temp;Humidity;BMP_temperature;BMP_pressure;BME280_temperature;BME280_humidity;BME280_pressure;Samples;Min_cycle;Max_cycle;Signal;HPM_P1;HPM_P2
2022/05/19 00:01:48;;;;;;;2.80;0.90;;;22.80;91.20;;;;;;5053621;28;20475;-75
2022/05/19 00:04:16;;;;;;;2.42;0.88;;;22.60;90.90;;;;;;5052173;28;20047;-75
2022/05/19 00:06:45;;;;;;;2.28;0.98;;;22.60;91.10;;;;;;5036572;28;20571;-75
2022/05/19 00:09:13;;;;;;;1.20;0.80;;;22.50;91.80;;;;;;5047329;28;20294;-76
2022/05/19 00:11:42;;;;;;;1.67;0.68;;;22.40;91.50;;;;;;5050628;28;20064;-76
2022/05/19 00:14:11;;;;;;;3.20;0.85;;;22.40;91.30;;;;;;5051372;28;20109;-76
2022/05/19 00:16:39;;;;;;;2.13;0.82;;;22.40;91.90;;;;;;5059192;28;20045;-76
2022/05/19 00:19:08;;;;;;;2.72;1.20;;;22.30;91.80;;;;;;5054749;28;20028;-76
2022/05/19 00:21:37;;;;;;;3.50;0.73;;;22.40;91.60;;;;;;5047470;28;20076;-76
2022/05/19 00:24:06;;;;;;;3.13;0.90;;;22.30;91.50;;;;;;5047545;28;20037;-76
2022/05/19 00:26:34;;;;;;;1.83;0.90;;;22.20;91.80;;;;;;5050949;28;20045;-75
2022/05/19 00:29:03;;;;;;;1.48;0.82;;;22.20;91.80;;;;;;5056766;28;20036;-76
2022/05/19 00:31:32;;;;;;;1.38;0.65;;;22.30;91.50;;;;;;5055551;28;20045;-76
2022/05/19 00:34:02;;;;;;;3.55;1.00;;;22.20;91.50;;;;;;5059023;28;20708;-76
2022/05/19 00:36:34;;;;;;;3.30;0.80;;;22.20;91.10;;;;;;5052516;28;20072;-76
2022/05/19 00:39:03;;;;;;;2.10;1.00;;;22.20;91.50;;;;;;5052695;28;20485;-76
2022/05/19 00:41:32;;;;;;;4.05;1.55;;;22.20;92.10;;;;;;5060061;28;20045;-76
2022/05/19 00:44:02;;;;;;;3.47;0.85;;;22.00;93.20;;;;;;5059190;28;20037;-76
2022/05/19 00:46:44;;;;;;;3.15;0.90;;;22.00;93.50;;;;;;5059029;28;20041;-76
2022/05/19 00:49:18;;;;;;;2.45;1.05;;;22.00;92.70;;;;;;5060103;28;20094;-76
2022/05/19 00:51:52;;;;;;;1.52;0.70;;;22.00;92.90;;;;;;5053787;28;20580;-76
2022/05/19 00:54:24;;;;;;;1.40;0.70;;;21.90;93.20;;;;;;5054709;28;20055;-75
2022/05/19 00:56:56;;;;;;;2.55;0.82;;;21.90;92.70;;;;;;5053919;28;20051;-76
2022/05/19 00:59:30;;;;;;;2.45;0.88;;;21.90;92.10;;;;;;5040127;28;20051;-76
2022/05/19 01:01:58;;;;;;;3.88;0.82;;;21.80;92.10;;;;;;5052362;28;20120;-76
2022/05/19 01:04:30;;;;;;;1.95;0.70;;;21.70;92.20;;;;;;5035351;28;20040;-76
2022/05/19 01:07:04;;;;;;;1.45;0.85;;;21.70;92.10;;;;;;5056066;28;20055;-76
2022/05/19 01:09:35;;;;;;;2.08;0.85;;;21.70;91.80;;;;;;5057484;28;20056;-76
2022/05/19 01:12:05;;;;;;;1.30;0.82;;;21.70;91.90;;;;;;5052259;28;20053;-76
2022/05/19 01:14:34;;;;;;;2.47;0.95;;;21.70;91.80;;;;;;5052761;28;20056;-75
2022/05/19 01:17:04;;;;;;;1.98;0.82;;;21.60;91.70;;;;;;5059124;28;20098;-76
2022/05/19 01:19:35;;;;;;;1.95;0.88;;;21.70;91.90;;;;;;5050973;28;20677;-76
2022/05/19 01:22:15;;;;;;;4.05;1.10;;;21.70;91.80;;;;;;5053447;28;20045;-76
2022/05/19 01:24:54;;;;;;;1.55;1.10;;;21.70;91.70;;;;;;5053389;28;20067;-76
2022/05/19 01:27:24;;;;;;;6.55;1.35;;;21.60;91.20;;;;;;5062079;28;20084;-76
2022/05/19 01:29:56;;;;;;;3.28;0.70;;;21.60;91.70;;;;;;5052257;28;20804;-76
2022/05/19 01:32:45;;;;;;;1.20;0.93;;;21.60;91.70;;;;;;5013635;28;20058;-76
2022/05/19 01:35:13;;;;;;;2.10;0.80;;;21.60;91.70;;;;;;5005377;28;20053;-76
2022/05/19 01:37:42;;;;;;;2.03;0.77;;;21.50;91.40;;;;;;4995936;28;20061;-75
2022/05/19 01:41:08;;;;;;;1.13;0.75;;;21.30;92.40;;;;;;4980716;28;20049;-76
2022/05/19 01:43:45;;;;;;;2.70;0.85;;;21.30;92.60;;;;;;4982438;28;20045;-75
2022/05/19 01:46:20;;;;;;;2.88;0.90;;;21.20;92.60;;;;;;5000752;28;20053;-75
2022/05/19 01:48:52;;;;;;;2.55;0.90;;;21.20;93.20;;;;;;4994185;28;20050;-75
2022/05/19 01:51:30;;;;;;;1.80;0.60;;;21.30;93.60;;;;;;5001975;28;20360;-76
2022/05/19 01:54:07;;;;;;;2.20;0.85;;;21.30;94.10;;;;;;4991234;28;20038;-76
2022/05/19 01:56:41;;;;;;;2.03;0.90;;;21.20;94.60;;;;;;5012155;28;20151;-76
2022/05/19 01:59:18;;;;;;;1.80;0.98;;;21.10;95.30;;;;;;4995520;28;20711;-76
2022/05/19 02:01:54;;;;;;;3.28;1.10;;;21.00;96.20;;;;;;4995836;28;20507;-76
2022/05/19 02:04:27;;;;;;;3.42;0.85;;;20.90;96.60;;;;;;4980876;28;20045;-76
2022/05/19 02:06:59;;;;;;;2.65;1.20;;;20.90;96.70;;;;;;5010533;28;20072;-76
2022/05/19 02:09:32;;;;;;;4.00;0.75;;;20.90;96.70;;;;;;5006871;28;20081;-76
2022/05/19 02:12:01;;;;;;;2.95;1.20;;;20.80;96.70;;;;;;5056178;28;20064;-76
2022/05/19 02:14:35;;;;;;;2.45;1.23;;;20.70;96.70;;;;;;5050290;28;20076;-76
2022/05/19 02:17:07;;;;;;;1.77;0.95;;;20.70;96.70;;;;;;5058420;28;20048;-76
2022/05/19 02:19:39;;;;;;;1.90;0.85;;;20.50;96.70;;;;;;5059679;28;20123;-76
2022/05/19 02:22:11;;;;;;;1.23;0.90;;;20.30;96.70;;;;;;5053281;28;20509;-76
2022/05/19 02:24:45;;;;;;;3.50;1.27;;;20.30;96.70;;;;;;5060694;28;20053;-76
2022/05/19 02:27:31;;;;;;;2.25;0.90;;;20.20;96.70;;;;;;5049040;28;20224;-76
2022/05/19 02:30:03;;;;;;;3.47;0.75;;;20.20;96.70;;;;;;5072408;28;20090;-76
2022/05/19 02:32:35;;;;;;;2.40;1.27;;;20.20;96.70;;;;;;5054653;28;20532;-75
2022/05/19 02:35:03;;;;;;;4.00;1.02;;;20.20;96.70;;;;;;5057218;28;20068;-75
2022/05/19 02:37:31;;;;;;;1.73;0.90;;;20.20;96.70;;;;;;5046234;28;20128;-75
2022/05/19 02:40:00;;;;;;;3.03;1.05;;;20.20;96.70;;;;;;5056748;28;20151;-75
2022/05/19 02:42:28;;;;;;;3.28;1.00;;;20.20;96.70;;;;;;5049246;28;20503;-75
2022/05/19 02:44:56;;;;;;;2.65;0.88;;;20.20;96.70;;;;;;5055715;28;20045;-75
2022/05/19 02:47:25;;;;;;;2.47;1.20;;;20.30;96.70;;;;;;5053763;28;20057;-75
2022/05/19 02:49:53;;;;;;;2.80;0.88;;;20.20;96.70;;;;;;5054983;28;20499;-75
2022/05/19 02:52:21;;;;;;;2.55;1.13;;;20.20;96.70;;;;;;5040072;28;20037;-75
2022/05/19 02:54:48;;;;;;;3.00;0.73;;;20.10;96.70;;;;;;5055063;28;20056;-74
2022/05/19 02:57:16;;;;;;;2.17;0.85;;;20.10;96.70;;;;;;5054018;28;20090;-75
2022/05/19 02:59:44;;;;;;;1.85;0.90;;;20.00;96.70;;;;;;5036097;28;20517;-75
2022/05/19 03:02:11;;;;;;;1.80;1.10;;;20.00;96.70;;;;;;5054549;28;20083;-76
2022/05/19 03:04:41;;;;;;;1.15;0.77;;;20.00;96.70;;;;;;5036148;28;20057;-76
2022/05/19 03:07:08;;;;;;;2.03;0.85;;;20.00;96.70;;;;;;5037982;28;20067;-75
2022/05/19 03:09:38;;;;;;;2.60;0.75;;;20.00;96.70;;;;;;5049687;28;20040;-75
2022/05/19 03:12:07;;;;;;;2.60;0.90;;;19.90;96.70;;;;;;5036455;28;20576;-76
2022/05/19 03:14:34;;;;;;;3.78;1.13;;;19.90;96.70;;;;;;5048779;28;20072;-76
2022/05/19 03:17:05;;;;;;;2.38;0.80;;;19.80;96.70;;;;;;5058360;28;20032;-76
2022/05/19 03:19:33;;;;;;;1.65;0.80;;;19.80;96.70;;;;;;5033240;28;20084;-75
2022/05/19 03:22:03;;;;;;;1.60;0.80;;;19.70;96.70;;;;;;5052034;28;20098;-75
2022/05/19 03:24:32;;;;;;;3.03;0.80;;;19.80;96.70;;;;;;5050574;28;20051;-75
2022/05/19 03:27:00;;;;;;;1.23;0.80;;;19.80;96.70;;;;;;5038647;28;20077;-76
2022/05/19 03:29:28;;;;;;;2.95;0.98;;;19.70;96.70;;;;;;5048220;28;20193;-75
2022/05/19 03:31:55;;;;;;;2.95;0.90;;;19.60;96.70;;;;;;5036329;28;20380;-76
2022/05/19 03:34:23;;;;;;;4.03;1.00;;;19.50;96.70;;;;;;5051238;28;20053;-76
2022/05/19 03:36:51;;;;;;;2.45;0.75;;;19.50;96.70;;;;;;5052689;28;20552;-76
2022/05/19 03:39:20;;;;;;;1.90;0.98;;;19.50;96.70;;;;;;5055784;28;20057;-76
2022/05/19 03:41:48;;;;;;;1.70;0.77;;;19.60;96.70;;;;;;5049377;28;20584;-76
2022/05/19 03:44:16;;;;;;;2.72;1.02;;;19.60;96.70;;;;;;5052039;28;20064;-76
2022/05/19 03:46:43;;;;;;;1.90;0.85;;;19.60;96.70;;;;;;5052733;28;20666;-75
2022/05/19 03:49:13;;;;;;;3.17;1.10;;;19.70;96.70;;;;;;5052806;28;20426;-75
2022/05/19 03:51:42;;;;;;;2.85;1.42;;;19.50;96.70;;;;;;5033767;28;20483;-75
2022/05/19 03:54:10;;;;;;;1.98;0.85;;;19.40;96.70;;;;;;5052463;28;20051;-75
2022/05/19 03:56:39;;;;;;;3.13;1.00;;;19.10;96.70;;;;;;5056788;28;20098;-75
2022/05/19 03:59:07;;;;;;;1.85;0.98;;;19.10;96.70;;;;;;5054409;28;20760;-76
2022/05/19 04:01:35;;;;;;;1.83;1.15;;;19.10;96.70;;;;;;5051423;28;20455;-75
2022/05/19 04:04:03;;;;;;;2.10;1.10;;;19.10;96.70;;;;;;5052669;28;20586;-76
2022/05/19 04:06:34;;;;;;;2.45;1.20;;;19.00;96.70;;;;;;5052010;28;20048;-76
2022/05/19 04:09:03;;;;;;;2.50;1.10;;;19.00;96.70;;;;;;5034085;28;20167;-75
2022/05/19 04:11:31;;;;;;;2.38;0.90;;;19.10;96.70;;;;;;5049740;28;20509;-75
2022/05/19 04:14:01;;;;;;;1.75;0.98;;;19.10;96.70;;;;;;5051896;28;20044;-76
2022/05/19 04:16:28;;;;;;;5.28;1.40;;;19.00;96.70;;;;;;5057349;28;20102;-75
2022/05/19 04:18:56;;;;;;;4.03;0.90;;;19.00;96.70;;;;;;5056959;28;20036;-75
2022/05/19 04:21:24;;;;;;;2.97;1.05;;;19.00;96.70;;;;;;5035423;28;20118;-75
2022/05/19 04:23:52;;;;;;;3.08;1.10;;;19.10;96.70;;;;;;5055744;28;20506;-75
2022/05/19 04:26:19;;;;;;;4.50;1.00;;;19.10;96.70;;;;;;5036427;28;20048;-76
2022/05/19 04:28:47;;;;;;;3.10;1.52;;;19.20;96.70;;;;;;5054820;28;20185;-75
2022/05/19 04:31:16;;;;;;;10.95;1.80;;;19.20;96.70;;;;;;5048338;28;20059;-75
2022/05/19 04:33:44;;;;;;;4.10;0.93;;;19.30;96.70;;;;;;5052984;28;20545;-77
2022/05/19 04:36:12;;;;;;;3.80;1.30;;;19.20;96.70;;;;;;5058685;28;20040;-75
2022/05/19 04:38:40;;;;;;;3.47;1.80;;;19.10;96.70;;;;;;5054423;28;20060;-75
2022/05/19 04:41:07;;;;;;;4.13;1.20;;;19.20;96.70;;;;;;5060364;28;20047;-76
2022/05/19 04:43:35;;;;;;;3.75;1.13;;;19.10;96.70;;;;;;5045414;28;20103;-76
2022/05/19 04:46:03;;;;;;;2.72;1.25;;;19.20;96.70;;;;;;5055107;28;20047;-75
2022/05/19 04:48:33;;;;;;;2.67;1.27;;;19.40;96.70;;;;;;5052654;28;20463;-76
2022/05/19 04:51:02;;;;;;;5.35;1.35;;;19.50;96.70;;;;;;5056528;28;20386;-75
2022/05/19 04:53:29;;;;;;;3.13;1.40;;;19.30;96.70;;;;;;5053352;28;20126;-75
2022/05/19 04:55:57;;;;;;;5.43;1.38;;;19.20;96.70;;;;;;5046487;28;20183;-75
2022/05/19 04:58:25;;;;;;;3.67;1.42;;;19.10;96.70;;;;;;5051366;28;20402;-75
2022/05/19 05:00:53;;;;;;;4.75;1.48;;;19.10;96.70;;;;;;5035747;28;20051;-75
2022/05/19 05:03:21;;;;;;;4.95;1.38;;;19.20;96.70;;;;;;5054020;28;20049;-77
2022/05/19 05:05:51;;;;;;;5.53;1.40;;;19.20;96.70;;;;;;5050509;28;20882;-74
2022/05/19 05:08:18;;;;;;;4.90;1.58;;;19.10;96.70;;;;;;5034270;28;20052;-74
2022/05/19 05:10:46;;;;;;;3.15;1.27;;;19.30;96.70;;;;;;5049006;28;20041;-74
2022/05/19 05:13:17;;;;;;;2.78;1.35;;;19.30;96.70;;;;;;5051859;28;20160;-74
2022/05/19 05:15:45;;;;;;;3.45;1.10;;;19.50;96.70;;;;;;5056683;28;20036;-74
2022/05/19 05:18:13;;;;;;;3.67;1.13;;;19.50;96.70;;;;;;5059455;28;20094;-74
2022/05/19 05:20:43;;;;;;;1.65;1.17;;;19.70;96.70;;;;;;5050325;28;20045;-75
2022/05/19 05:23:13;;;;;;;2.17;0.98;;;19.60;96.70;;;;;;5057209;28;20137;-75
2022/05/19 05:25:41;;;;;;;3.30;1.27;;;19.80;96.70;;;;;;5054268;28;20049;-74
2022/05/19 05:28:08;;;;;;;7.07;1.30;;;19.80;96.70;;;;;;5053770;28;20060;-78
2022/05/19 05:30:36;;;;;;;6.10;1.30;;;19.90;96.70;;;;;;5055716;28;20047;-81
2022/05/19 05:33:08;;;;;;;5.55;1.55;;;20.00;96.70;;;;;;5037544;28;20044;-78
2022/05/19 05:35:39;;;;;;;5.30;1.38;;;20.10;96.70;;;;;;5054336;28;20667;-79
2022/05/19 05:38:29;;;;;;;4.75;1.80;;;20.10;96.70;;;;;;5052686;28;20041;-79
2022/05/19 05:40:59;;;;;;;7.40;2.45;;;20.10;96.70;;;;;;4974875;28;20058;-79
2022/05/19 05:43:26;;;;;;;5.38;2.10;;;20.20;96.70;;;;;;4942751;28;20074;-80
2022/05/19 05:46:05;;;;;;;7.10;2.10;;;20.20;96.70;;;;;;4974756;28;20149;-80
2022/05/19 05:48:36;;;;;;;5.05;1.98;;;20.30;96.70;;;;;;4959763;28;20066;-75
2022/05/19 05:51:05;;;;;;;5.53;2.55;;;20.40;96.70;;;;;;4962256;28;20047;-76
2022/05/19 05:53:34;;;;;;;9.73;2.25;;;20.50;96.70;;;;;;4972032;28;20597;-76
2022/05/19 05:56:04;;;;;;;4.68;1.88;;;20.60;96.70;;;;;;4959617;28;20047;-75
2022/05/19 05:58:33;;;;;;;5.07;1.90;;;20.70;96.70;;;;;;4970619;28;20114;-76
2022/05/19 06:01:05;;;;;;;6.50;2.13;;;20.70;96.70;;;;;;4963868;28;20058;-76
2022/05/19 06:03:34;;;;;;;10.00;2.83;;;20.70;96.70;;;;;;4956036;28;20077;-74
2022/05/19 06:06:03;;;;;;;8.30;2.25;;;20.90;96.70;;;;;;4962180;28;20046;-75
2022/05/19 06:08:33;;;;;;;7.63;2.40;;;20.90;96.70;;;;;;4939181;28;20129;-74
2022/05/19 06:11:01;;;;;;;8.88;2.33;;;20.90;96.70;;;;;;4981666;28;20049;-75
2022/05/19 06:13:39;;;;;;;7.78;3.10;;;20.90;96.70;;;;;;5054492;28;20703;-75
2022/05/19 06:16:07;;;;;;;9.73;3.30;;;21.00;96.70;;;;;;5055255;28;20068;-73
2022/05/19 06:18:35;;;;;;;7.72;2.65;;;21.00;96.70;;;;;;5042853;28;20619;-73
2022/05/19 06:21:03;;;;;;;7.75;2.85;;;21.00;96.70;;;;;;5053222;28;20566;-73
2022/05/19 06:23:33;;;;;;;8.02;2.25;;;21.10;96.70;;;;;;5051863;28;20049;-73
2022/05/19 06:26:01;;;;;;;7.38;2.00;;;21.20;96.70;;;;;;5052064;28;21083;-74
2022/05/19 06:28:29;;;;;;;4.55;1.50;;;21.30;96.70;;;;;;5038010;28;20453;-73
2022/05/19 06:30:58;;;;;;;4.18;1.63;;;21.20;96.70;;;;;;5052826;28;20047;-73
2022/05/19 06:33:27;;;;;;;6.15;1.55;;;21.30;96.70;;;;;;5060067;28;20048;-74
2022/05/19 06:35:55;;;;;;;4.82;1.60;;;21.30;96.70;;;;;;5055713;28;20059;-75
2022/05/19 06:38:23;;;;;;;4.72;1.52;;;21.40;96.70;;;;;;5056620;28;20086;-74
2022/05/19 06:43:47;;;;;;;5.43;1.77;;;21.50;96.70;;;;;;5049497;28;20593;-74
2022/05/19 06:46:15;;;;;;;9.43;1.90;;;21.60;96.70;;;;;;5056122;28;20051;-74
2022/05/19 06:48:43;;;;;;;5.85;1.60;;;21.60;96.70;;;;;;5051105;28;20052;-73
2022/05/19 06:51:11;;;;;;;4.60;1.23;;;21.60;96.70;;;;;;5040956;28;20044;-74
2022/05/19 06:53:49;;;;;;;3.28;1.27;;;21.70;96.70;;;;;;5052323;28;20044;-74
2022/05/19 06:56:18;;;;;;;2.35;1.30;;;21.80;96.70;;;;;;5052904;28;20573;-74
2022/05/19 06:58:46;;;;;;;6.50;1.60;;;21.80;96.70;;;;;;5053820;28;20525;-74
2022/05/19 07:01:14;;;;;;;5.68;1.10;;;22.00;96.70;;;;;;5057347;28;20044;-73
2022/05/19 07:03:41;;;;;;;4.60;1.42;;;22.10;96.70;;;;;;5053798;28;20048;-74
2022/05/19 07:06:09;;;;;;;4.32;1.20;;;22.20;96.70;;;;;;5056616;28;20060;-74
2022/05/19 07:08:40;;;;;;;3.20;1.20;;;22.30;96.70;;;;;;5056576;28;20060;-75
2022/05/19 07:11:24;;;;;;;2.38;0.90;;;22.40;96.70;;;;;;5051323;28;20076;-76
2022/05/19 07:13:59;;;;;;;7.15;1.30;;;22.50;96.70;;;;;;5051813;28;20537;-76
2022/05/19 07:16:28;;;;;;;4.25;1.20;;;22.60;96.70;;;;;;5054593;28;20066;-76
2022/05/19 07:21:44;;;;;;;6.63;1.38;;;22.80;96.70;;;;;;5046525;28;20521;-75
2022/05/19 07:24:17;;;;;;;4.25;1.33;;;22.90;96.70;;;;;;5052891;28;20045;-76
2022/05/19 07:26:49;;;;;;;6.25;1.45;;;22.90;96.10;;;;;;5051786;28;20041;-76
2022/05/19 07:29:20;;;;;;;3.75;1.10;;;23.00;96.20;;;;;;5051316;28;20041;-76
2022/05/19 07:31:49;;;;;;;3.22;1.20;;;23.10;96.70;;;;;;5055379;28;20064;-76
2022/05/19 07:34:19;;;;;;;5.55;1.15;;;23.20;96.20;;;;;;5048625;28;20069;-75
2022/05/19 07:36:47;;;;;;;5.28;1.90;;;23.30;96.20;;;;;;5051483;28;20132;-75
2022/05/19 07:39:15;;;;;;;8.70;3.58;;;23.40;95.00;;;;;;5054923;28;20041;-76
2022/05/19 07:41:43;;;;;;;8.65;4.18;;;23.50;93.90;;;;;;5058047;28;20047;-76
2022/05/19 07:44:11;;;;;;;8.23;2.90;;;23.50;94.10;;;;;;5055694;28;20131;-75
2022/05/19 07:46:40;;;;;;;3.63;2.65;;;23.50;95.60;;;;;;5056081;28;20047;-76
2022/05/19 07:49:08;;;;;;;3.65;1.50;;;23.60;95.80;;;;;;5050599;28;20044;-76
2022/05/19 07:51:40;;;;;;;4.63;2.20;;;23.70;95.10;;;;;;5051464;28;20610;-76
2022/05/19 07:54:26;;;;;;;5.07;2.70;;;23.80;95.10;;;;;;5056438;28;20597;-76
2022/05/19 07:56:55;;;;;;;4.45;1.73;;;23.80;94.80;;;;;;5052131;28;20553;-75
2022/05/19 07:59:24;;;;;;;5.40;1.60;;;23.90;94.60;;;;;;5048006;28;20773;-75
2022/05/19 08:01:55;;;;;;;3.83;1.30;;;24.00;94.60;;;;;;5057745;28;20032;-75
2022/05/19 08:04:25;;;;;;;2.58;1.05;;;24.00;95.00;;;;;;5052367;28;20044;-75
2022/05/19 08:06:53;;;;;;;2.58;1.40;;;24.10;94.50;;;;;;5052266;28;20047;-75
2022/05/19 08:12:15;;;;;;;4.40;1.17;;;24.20;94.90;;;;;;5053046;28;20426;-75
2022/05/19 08:17:33;;;;;;;12.95;1.80;;;24.40;95.00;;;;;;5053648;28;20048;-75
2022/05/19 08:20:06;;;;;;;4.15;1.40;;;24.60;94.40;;;;;;5054717;28;20044;-75
2022/05/19 08:22:36;;;;;;;2.65;1.60;;;24.50;94.90;;;;;;5047937;28;20037;-75
2022/05/19 08:25:05;;;;;;;2.92;1.35;;;24.60;94.10;;;;;;5054184;28;20040;-75
2022/05/19 08:27:32;;;;;;;2.72;1.15;;;24.80;94.30;;;;;;5034696;28;20057;-76
2022/05/19 08:30:00;;;;;;;4.00;1.60;;;25.00;93.40;;;;;;5052868;28;20052;-76
2022/05/19 08:32:28;;;;;;;3.60;1.50;;;25.00;91.70;;;;;;5047866;28;20052;-79
2022/05/19 08:34:57;;;;;;;3.65;1.10;;;25.20;92.20;;;;;;5054911;28;20045;-75
2022/05/19 08:37:25;;;;;;;3.28;1.50;;;25.20;93.10;;;;;;5048339;28;20091;-76
2022/05/19 08:39:53;;;;;;;3.55;1.00;;;25.10;92.50;;;;;;5046878;28;20114;-76
2022/05/19 08:42:22;;;;;;;1.58;1.00;;;25.20;92.70;;;;;;5054507;28;20040;-75
2022/05/19 08:44:52;;;;;;;2.42;1.23;;;25.20;91.90;;;;;;5056243;28;20045;-76
2022/05/19 08:47:25;;;;;;;2.10;1.17;;;25.30;91.60;;;;;;5051360;28;20510;-76
2022/05/19 08:49:58;;;;;;;1.88;1.15;;;25.30;91.00;;;;;;5046255;28;20386;-76
2022/05/19 08:52:32;;;;;;;3.88;1.20;;;25.30;91.30;;;;;;5056449;28;20068;-76
2022/05/19 08:55:00;;;;;;;2.83;0.95;;;25.30;89.70;;;;;;5050512;28;20079;-75
2022/05/19 08:57:55;;;;;;;1.58;1.20;;;25.50;90.10;;;;;;5055903;28;20053;-76
2022/05/19 09:00:27;;;;;;;3.10;1.10;;;25.60;91.00;;;;;;5040112;28;20052;-76
2022/05/19 09:03:17;;;;;;;2.28;1.48;;;25.70;88.80;;;;;;5054613;28;20130;-75
2022/05/19 09:06:12;;;;;;;2.35;1.00;;;25.90;88.80;;;;;;5055249;28;20068;-75
2022/05/19 09:08:59;;;;;;;2.70;1.00;;;26.00;88.20;;;;;;5053095;28;20124;-76
2022/05/19 09:11:38;;;;;;;3.45;1.30;;;26.10;87.40;;;;;;5059579;28;20469;-76
2022/05/19 09:14:17;;;;;;;3.47;1.42;;;26.20;86.50;;;;;;5057223;28;20048;-76
2022/05/19 09:16:46;;;;;;;3.80;1.27;;;26.30;87.20;;;;;;5055279;28;20678;-76
2022/05/19 09:19:18;;;;;;;2.78;1.20;;;26.20;87.60;;;;;;5056800;28;20120;-76
2022/05/19 09:21:54;;;;;;;2.25;1.08;;;26.30;88.00;;;;;;5058505;28;20046;-76
2022/05/19 09:24:22;;;;;;;1.83;1.27;;;26.40;88.20;;;;;;5037695;28;20132;-76
2022/05/19 09:26:52;;;;;;;2.30;1.05;;;26.50;87.00;;;;;;5053051;28;20072;-76
2022/05/19 09:29:22;;;;;;;3.45;1.15;;;26.70;85.60;;;;;;5053660;28;20056;-76
2022/05/19 09:31:53;;;;;;;2.17;1.33;;;26.70;86.30;;;;;;5053470;28;20048;-76
2022/05/19 09:34:25;;;;;;;3.22;1.00;;;26.70;85.60;;;;;;5051048;28;20106;-76
2022/05/19 09:37:08;;;;;;;2.97;1.35;;;26.70;85.50;;;;;;5052512;28;20064;-76
2022/05/19 09:39:45;;;;;;;2.45;1.10;;;26.80;87.20;;;;;;5052953;28;20037;-77
2022/05/19 09:42:22;;;;;;;2.58;1.10;;;27.00;86.80;;;;;;5056733;28;20071;-76
2022/05/19 09:45:03;;;;;;;4.82;1.33;;;27.00;85.00;;;;;;5058109;28;20495;-76
2022/05/19 09:47:36;;;;;;;2.25;1.00;;;27.00;85.10;;;;;;5055474;28;20060;-76
2022/05/19 09:50:13;;;;;;;4.80;1.10;;;27.00;85.40;;;;;;5053212;28;20033;-76
2022/05/19 09:52:45;;;;;;;1.77;1.10;;;27.10;86.10;;;;;;5057733;28;20044;-76
2022/05/19 09:55:16;;;;;;;2.67;0.98;;;27.10;86.20;;;;;;5053563;28;20044;-76
2022/05/19 09:57:52;;;;;;;1.25;1.10;;;26.90;86.40;;;;;;5051655;28;20057;-75
2022/05/19 10:00:35;;;;;;;2.90;1.38;;;26.90;85.20;;;;;;5052852;28;20052;-75
2022/05/19 10:03:10;;;;;;;3.13;1.20;;;27.20;84.90;;;;;;5054440;28;20045;-76
2022/05/19 10:05:47;;;;;;;2.58;0.90;;;27.30;84.40;;;;;;5052761;28;20552;-75
2022/05/19 10:08:18;;;;;;;;;;;27.50;84.60;;;;;;5053698;28;20101;-75
2022/05/19 10:10:55;;;;;;;2.80;1.00;;;27.60;83.70;;;;;;5057304;28;20031;-76
2022/05/19 10:13:28;;;;;;;2.15;0.98;;;27.50;83.20;;;;;;5052685;28;20037;-77
2022/05/19 10:16:03;;;;;;;3.30;1.25;;;27.60;84.00;;;;;;5060193;28;20136;-76
2022/05/19 10:18:52;;;;;;;3.15;1.02;;;27.40;84.10;;;;;;5053063;28;20060;-76
2022/05/19 10:21:37;;;;;;;2.85;1.20;;;27.20;84.50;;;;;;5054756;28;20045;-81
2022/05/19 10:24:25;;;;;;;3.28;1.35;;;27.20;84.70;;;;;;5058899;28;20079;-82
2022/05/19 10:33:12;;;;;;;3.75;1.02;;;27.90;83.70;;;;;;5056950;28;20060;-81
2022/05/19 10:35:53;;;;;;;5.65;1.30;;;28.20;83.40;;;;;;5057017;28;20055;-81
2022/05/19 10:38:44;;;;;;;3.80;1.48;;;28.30;83.20;;;;;;5065135;28;20048;-83
2022/05/19 10:41:40;;;;;;;5.72;1.38;;;28.40;84.10;;;;;;5065758;28;20099;-81
2022/05/19 10:44:29;;;;;;;2.10;1.20;;;28.40;83.00;;;;;;5055758;28;20072;-81
2022/05/19 10:47:05;;;;;;;2.92;1.20;;;28.50;82.70;;;;;;5056905;28;20844;-82
2022/05/19 10:50:02;;;;;;;5.30;1.27;;;28.50;82.60;;;;;;5064575;28;20040;-83
2022/05/19 10:52:43;;;;;;;2.05;1.00;;;28.30;81.50;;;;;;5054443;28;20045;-82
2022/05/19 10:55:19;;;;;;;4.63;1.35;;;28.30;80.20;;;;;;5051347;28;20072;-78
2022/05/19 10:58:13;;;;;;;2.30;1.10;;;28.30;80.80;;;;;;5041080;28;20071;-76
2022/05/19 11:01:02;;;;;;;1.98;1.35;;;28.20;81.40;;;;;;5057648;28;20044;-75
2022/05/19 11:03:58;;;;;;;4.15;1.35;;;28.20;80.30;;;;;;5054921;28;20127;-76
2022/05/19 11:07:03;;;;;;;2.33;1.10;;;28.50;81.60;;;;;;5046937;28;20324;-76
2022/05/19 11:09:37;;;;;;;3.65;1.25;;;28.90;80.70;;;;;;5048718;28;20063;-76
2022/05/19 11:12:13;;;;;;;2.17;1.10;;;29.20;80.80;;;;;;5054506;28;20045;-75
2022/05/19 11:14:53;;;;;;;2.65;1.40;;;29.30;78.90;;;;;;5057324;28;20376;-76
2022/05/19 11:17:30;;;;;;;3.20;1.20;;;29.30;78.90;;;;;;5049863;28;20419;-76
2022/05/19 11:20:04;;;;;;;2.60;1.23;;;29.40;79.40;;;;;;5060584;28;20102;-76
2022/05/19 11:22:37;;;;;;;3.92;1.70;;;29.50;78.70;;;;;;5056836;28;20076;-76
2022/05/19 11:28:04;;;;;;;5.50;1.10;;;29.60;78.60;;;;;;5055263;28;20140;-76
2022/05/19 11:30:48;;;;;;;3.17;1.33;;;29.80;76.30;;;;;;5035051;28;20509;-76
2022/05/19 11:33:24;;;;;;;2.00;1.33;;;29.80;77.90;;;;;;5055226;28;20474;-76
2022/05/19 11:36:00;;;;;;;4.40;1.13;;;29.80;77.20;;;;;;5036232;28;20507;-76
2022/05/19 11:38:36;;;;;;;2.85;1.20;;;29.80;77.20;;;;;;5038289;28;20486;-76
2022/05/19 11:41:08;;;;;;;3.63;1.40;;;29.90;77.40;;;;;;5050278;28;20098;-76
2022/05/19 11:43:44;;;;;;;1.88;1.52;;;29.80;77.10;;;;;;5056104;28;20052;-76
2022/05/19 11:46:18;;;;;;;2.72;1.38;;;29.90;77.00;;;;;;5051506;28;20078;-76
2022/05/19 11:57:38;;;;;;;1.75;1.00;;;30.40;77.30;;;;;;5051998;28;20072;-76
2022/05/19 12:00:10;;;;;;;2.45;1.30;;;30.60;77.60;;;;;;5053543;28;20098;-76
2022/05/19 12:02:49;;;;;;;2.67;1.30;;;30.70;75.60;;;;;;5053416;28;20100;-76
2022/05/19 12:05:25;;;;;;;2.55;1.25;;;30.70;75.80;;;;;;5047849;28;20097;-76
2022/05/19 12:07:57;;;;;;;3.30;1.17;;;30.80;76.20;;;;;;5057156;28;20045;-76
2022/05/19 12:10:31;;;;;;;3.28;1.35;;;30.80;76.50;;;;;;5053340;28;20528;-76
2022/05/19 12:13:00;;;;;;;1.63;0.80;;;30.90;75.80;;;;;;5047632;28;20063;-76
2022/05/19 12:15:37;;;;;;;2.83;1.10;;;30.90;74.50;;;;;;5041981;28;20060;-76
2022/05/19 12:18:33;;;;;;;3.22;1.20;;;30.70;75.00;;;;;;5049606;28;20465;-76
2022/05/19 12:21:39;;;;;;;1.92;1.10;;;30.60;74.70;;;;;;5055406;28;20044;-76
2022/05/19 12:24:12;;;;;;;3.13;1.27;;;30.90;75.80;;;;;;5026518;28;20044;-76
2022/05/19 12:26:57;;;;;;;1.50;1.13;;;31.10;74.90;;;;;;5053626;28;20040;-76
2022/05/19 12:29:38;;;;;;;3.70;1.48;;;31.30;73.70;;;;;;5040726;28;20055;-76
2022/05/19 12:32:20;;;;;;;4.43;1.08;;;31.40;74.50;;;;;;5055813;28;20052;-76
2022/05/19 12:34:52;;;;;;;5.22;1.15;;;31.50;74.40;;;;;;5038533;28;20149;-75
2022/05/19 12:38:00;;;;;;;1.65;1.13;;;31.50;72.90;;;;;;5049997;28;20462;-76
2022/05/19 12:40:37;;;;;;;1.25;1.00;;;31.50;72.40;;;;;;4985783;28;20204;-76
2022/05/19 12:43:24;;;;;;;2.97;1.40;;;31.30;73.20;;;;;;4971187;28;20117;-77
2022/05/19 12:45:55;;;;;;;3.28;1.48;;;31.30;72.30;;;;;;4981903;28;20539;-77
2022/05/19 12:48:43;;;;;;;2.30;1.40;;;31.30;73.90;;;;;;4980356;28;20072;-76
2022/05/19 12:51:18;;;;;;;3.25;1.20;;;31.20;74.60;;;;;;4985329;28;20830;-77
2022/05/19 12:54:03;;;;;;;3.50;1.42;;;31.30;75.20;;;;;;4992836;28;20065;-76
2022/05/19 12:56:57;;;;;;;2.60;1.23;;;31.70;75.70;;;;;;4990226;28;20083;-76
2022/05/19 12:59:53;;;;;;;3.42;1.25;;;31.90;75.20;;;;;;4973739;28;20054;-76
2022/05/19 13:02:30;;;;;;;2.42;0.98;;;31.90;73.30;;;;;;4980237;28;20587;-76
2022/05/19 13:05:04;;;;;;;6.95;1.15;;;31.90;72.40;;;;;;4973394;28;20050;-77
2022/05/19 13:07:39;;;;;;;8.90;1.30;;;32.00;72.90;;;;;;4996884;28;20065;-77
2022/05/19 13:10:15;;;;;;;3.57;1.07;;;32.10;72.20;;;;;;4972761;28;20149;-76
2022/05/19 13:12:57;;;;;;;4.43;1.98;;;32.20;71.70;;;;;;5052213;28;20052;-76
2022/05/19 13:15:27;;;;;;;1.77;1.08;;;32.50;72.10;;;;;;5049072;28;20041;-77
2022/05/19 13:17:58;;;;;;;5.05;1.05;;;32.80;72.40;;;;;;5051069;28;20114;-76
2022/05/19 13:20:30;;;;;;;2.67;1.30;;;33.00;73.40;;;;;;5042581;28;20093;-76
2022/05/19 13:23:23;;;;;;;1.67;1.35;;;33.10;72.50;;;;;;5054283;28;20579;-77
2022/05/19 13:26:00;;;;;;;3.22;1.00;;;33.40;70.90;;;;;;5051032;28;20606;-76
2022/05/19 13:31:20;;;;;;;1.92;1.10;;;33.60;71.00;;;;;;5051361;28;20483;-76
2022/05/19 13:33:51;;;;;;;4.50;1.40;;;33.80;71.00;;;;;;5055437;28;20056;-76
2022/05/19 13:36:30;;;;;;;3.78;1.52;;;34.00;70.30;;;;;;5034346;28;20049;-76
2022/05/19 13:39:11;;;;;;;3.20;1.23;;;34.10;70.40;;;;;;5053235;28;20466;-76
2022/05/19 13:41:47;;;;;;;6.00;1.80;;;33.70;70.60;;;;;;5053436;28;20415;-75
2022/05/19 13:44:23;;;;;;;2.13;1.00;;;33.70;72.20;;;;;;5054812;28;20126;-76
2022/05/19 13:46:51;;;;;;;3.97;1.00;;;33.90;68.80;;;;;;5060899;28;20148;-76
2022/05/19 13:49:22;;;;;;;4.93;1.63;;;34.00;71.30;;;;;;5056572;28;20048;-76
2022/05/19 13:51:51;;;;;;;3.58;1.20;;;34.10;70.80;;;;;;5056211;28;20116;-76